createdAt,value
2017-06-25T00:00:39.922Z,0
2017-06-25T00:01:20.821Z,0
2017-06-25T00:02:01.705Z,0
2017-06-25T00:02:42.589Z,0
2017-06-25T00:03:23.479Z,0
2017-06-25T00:04:04.376Z,0
2017-06-25T00:04:45.256Z,0
2017-06-25T00:05:26.137Z,0
2017-06-25T00:06:07.033Z,0
2017-06-25T00:06:47.916Z,0
2017-06-25T00:07:28.811Z,0
2017-06-25T00:08:09.706Z,0
2017-06-25T00:08:50.617Z,0
2017-06-25T00:09:31.503Z,0
2017-06-25T00:10:12.406Z,0
2017-06-25T00:10:53.272Z,0
2017-06-25T00:11:34.165Z,0
2017-06-25T00:12:15.078Z,0
2017-06-25T00:12:56.041Z,0
2017-06-25T00:13:36.906Z,0
2017-06-25T00:14:17.776Z,0
2017-06-25T00:14:58.667Z,0
2017-06-25T00:15:39.583Z,0
2017-06-25T00:16:20.440Z,0
2017-06-25T00:17:01.397Z,0
2017-06-25T00:17:42.254Z,0
2017-06-25T00:18:23.163Z,0
2017-06-25T00:19:04.069Z,0
2017-06-25T00:19:44.941Z,0
2017-06-25T00:20:25.810Z,0
2017-06-25T00:21:06.718Z,0
2017-06-25T00:21:47.599Z,0
2017-06-25T00:22:28.471Z,0
2017-06-25T00:23:09.378Z,0
2017-06-25T00:23:50.279Z,0
2017-06-25T00:24:31.162Z,0
2017-06-25T00:25:12.054Z,0
2017-06-25T00:25:52.949Z,0
2017-06-25T00:26:33.825Z,0
2017-06-25T00:27:14.704Z,0
2017-06-25T00:27:55.604Z,0
2017-06-25T00:28:36.491Z,0
2017-06-25T00:29:17.380Z,0
2017-06-25T00:29:58.268Z,0
2017-06-25T00:30:39.163Z,0
2017-06-25T00:31:20.050Z,0
2017-06-25T00:32:00.946Z,0
2017-06-25T00:32:41.842Z,0
2017-06-25T00:33:22.728Z,0
2017-06-25T00:34:03.621Z,0
2017-06-25T00:34:44.515Z,0
2017-06-25T00:35:25.402Z,0
2017-06-25T00:36:06.848Z,0
2017-06-25T00:36:47.750Z,0
2017-06-25T00:37:28.640Z,0
2017-06-25T00:38:09.535Z,0
2017-06-25T00:38:50.428Z,0
2017-06-25T00:39:31.357Z,0
2017-06-25T00:40:12.221Z,0
2017-06-25T00:40:53.102Z,0
2017-06-25T00:41:34.017Z,0
2017-06-25T00:42:14.891Z,0
2017-06-25T00:42:55.761Z,0
2017-06-25T00:43:36.641Z,0
2017-06-25T00:44:17.547Z,0
2017-06-25T00:44:58.424Z,0
2017-06-25T00:45:39.319Z,0
2017-06-25T00:46:20.232Z,0
2017-06-25T00:47:01.095Z,0
2017-06-25T00:47:41.969Z,0
2017-06-25T00:48:22.873Z,0
2017-06-25T00:49:03.764Z,0
2017-06-25T00:49:44.641Z,0
2017-06-25T00:50:25.523Z,0
2017-06-25T00:51:06.427Z,0
2017-06-25T00:51:47.305Z,0
2017-06-25T00:52:28.169Z,0
2017-06-25T00:53:09.065Z,0
2017-06-25T00:53:49.946Z,0
2017-06-25T00:54:30.889Z,0
2017-06-25T00:55:11.722Z,0
2017-06-25T00:55:52.624Z,0
2017-06-25T00:56:33.516Z,0
2017-06-25T00:57:14.392Z,0
2017-06-25T00:57:55.268Z,0
2017-06-25T00:58:36.172Z,0
2017-06-25T00:59:17.053Z,0
2017-06-25T00:59:57.926Z,0
2017-06-25T01:00:38.805Z,0
2017-06-25T01:01:19.704Z,0
2017-06-25T01:02:00.588Z,0
2017-06-25T01:02:41.465Z,0
2017-06-25T01:03:22.357Z,0
2017-06-25T01:04:03.247Z,0
2017-06-25T01:04:44.140Z,0
2017-06-25T01:05:25.042Z,0
2017-06-25T01:06:05.940Z,0
2017-06-25T01:06:46.816Z,0
2017-06-25T01:07:27.701Z,0
2017-06-25T01:08:08.598Z,0
2017-06-25T01:08:49.474Z,0
2017-06-25T01:09:30.370Z,0
2017-06-25T01:10:11.268Z,0
2017-06-25T01:10:52.153Z,0
2017-06-25T01:11:33.067Z,0
2017-06-25T01:12:13.943Z,0
2017-06-25T01:12:54.831Z,0
2017-06-25T01:13:35.715Z,0
2017-06-25T01:14:16.633Z,0
2017-06-25T01:14:57.514Z,0
2017-06-25T01:15:38.371Z,0
2017-06-25T01:16:19.258Z,0
2017-06-25T01:17:00.162Z,0
2017-06-25T01:17:41.049Z,0
2017-06-25T01:18:21.932Z,0
2017-06-25T01:19:02.854Z,0
2017-06-25T01:19:43.726Z,0
2017-06-25T01:20:24.627Z,0
2017-06-25T01:21:05.501Z,0
2017-06-25T01:21:46.394Z,0
2017-06-25T01:22:27.278Z,0
2017-06-25T01:23:08.173Z,0
2017-06-25T01:23:49.051Z,0
2017-06-25T01:24:29.931Z,0
2017-06-25T01:25:10.820Z,0
2017-06-25T01:25:51.721Z,0
2017-06-25T01:26:32.616Z,0
2017-06-25T01:27:13.516Z,0
2017-06-25T01:27:54.406Z,0
2017-06-25T01:28:35.299Z,0
2017-06-25T01:29:16.205Z,0
2017-06-25T01:29:57.109Z,0
2017-06-25T01:30:37.998Z,0
2017-06-25T01:31:18.893Z,0
2017-06-25T01:31:59.787Z,0
2017-06-25T01:32:40.723Z,0
2017-06-25T01:33:21.602Z,0
2017-06-25T01:34:02.486Z,0
2017-06-25T01:34:43.381Z,0
2017-06-25T01:35:24.259Z,0
2017-06-25T01:36:05.153Z,0
2017-06-25T01:36:46.048Z,0
2017-06-25T01:37:26.937Z,0
2017-06-25T01:38:07.823Z,0
2017-06-25T01:38:48.704Z,0
2017-06-25T01:39:29.613Z,0
2017-06-25T01:40:10.505Z,0
2017-06-25T01:40:51.384Z,0
2017-06-25T01:41:32.294Z,0
2017-06-25T01:42:13.183Z,0
2017-06-25T01:42:54.056Z,0
2017-06-25T01:43:34.950Z,0
2017-06-25T01:44:15.851Z,0
2017-06-25T01:44:56.732Z,0
2017-06-25T01:45:37.609Z,0
2017-06-25T01:46:18.497Z,0
2017-06-25T01:46:59.393Z,0
2017-06-25T01:47:40.246Z,0
2017-06-25T01:48:21.128Z,0
2017-06-25T01:49:02.023Z,0
2017-06-25T01:49:42.891Z,0
2017-06-25T01:50:23.783Z,0
2017-06-25T01:51:04.673Z,0
2017-06-25T01:51:45.572Z,0
2017-06-25T01:52:26.449Z,0
2017-06-25T01:53:07.333Z,0
2017-06-25T01:53:48.227Z,0
2017-06-25T01:54:29.113Z,0
2017-06-25T01:55:10.001Z,0
2017-06-25T01:55:50.895Z,0
2017-06-25T01:56:31.784Z,0
2017-06-25T01:57:12.666Z,0
2017-06-25T01:57:53.562Z,0
2017-06-25T01:58:34.436Z,0
2017-06-25T01:59:15.310Z,0
2017-06-25T01:59:56.194Z,0
2017-06-25T02:00:37.086Z,0
2017-06-25T02:01:17.972Z,0
2017-06-25T02:01:58.861Z,0
2017-06-25T02:02:39.733Z,0
2017-06-25T02:03:20.627Z,0
2017-06-25T02:04:01.528Z,0
2017-06-25T02:04:42.419Z,0
2017-06-25T02:05:23.298Z,0
2017-06-25T02:06:04.189Z,4
2017-06-25T02:06:45.085Z,4
2017-06-25T02:07:25.978Z,4
2017-06-25T02:08:06.866Z,4
2017-06-25T02:08:47.763Z,4
2017-06-25T02:09:28.657Z,0
2017-06-25T02:10:09.535Z,0
2017-06-25T02:10:50.421Z,0
2017-06-25T02:11:31.295Z,0
2017-06-25T02:12:12.172Z,4
2017-06-25T02:12:53.056Z,4
2017-06-25T02:13:33.934Z,4
2017-06-25T02:14:14.819Z,4
2017-06-25T02:14:55.702Z,0
2017-06-25T02:15:36.600Z,0
2017-06-25T02:16:17.505Z,4
2017-06-25T02:16:58.383Z,4
2017-06-25T02:17:39.282Z,4
2017-06-25T02:18:20.170Z,4
2017-06-25T02:19:01.050Z,4
2017-06-25T02:19:41.932Z,4
2017-06-25T02:20:22.826Z,4
2017-06-25T02:21:03.726Z,8
2017-06-25T02:21:44.609Z,8
2017-06-25T02:22:25.493Z,8
2017-06-25T02:23:06.392Z,8
2017-06-25T02:23:47.277Z,8
2017-06-25T02:24:28.165Z,12
2017-06-25T02:25:09.057Z,12
2017-06-25T02:25:49.934Z,12
2017-06-25T02:26:30.825Z,12
2017-06-25T02:27:11.709Z,8
2017-06-25T02:27:52.606Z,12
2017-06-25T02:28:33.492Z,12
2017-06-25T02:29:14.391Z,16
2017-06-25T02:29:55.289Z,20
2017-06-25T02:30:36.184Z,20
2017-06-25T02:31:17.055Z,16
2017-06-25T02:31:57.959Z,20
2017-06-25T02:32:38.858Z,20
2017-06-25T02:33:19.730Z,20
2017-06-25T02:34:00.638Z,24
2017-06-25T02:34:41.532Z,24
2017-06-25T02:35:22.417Z,24
2017-06-25T02:36:03.301Z,24
2017-06-25T02:36:44.197Z,24
2017-06-25T02:37:25.083Z,24
2017-06-25T02:38:05.973Z,28
2017-06-25T02:38:46.872Z,24
2017-06-25T02:39:27.744Z,28
2017-06-25T02:40:08.635Z,28
2017-06-25T02:40:49.539Z,28
2017-06-25T02:41:30.423Z,28
2017-06-25T02:42:11.314Z,28
2017-06-25T02:42:52.208Z,32
2017-06-25T02:43:33.098Z,32
2017-06-25T02:44:13.982Z,32
2017-06-25T02:44:54.883Z,36
2017-06-25T02:45:35.769Z,36
2017-06-25T02:46:16.659Z,36
2017-06-25T02:46:57.564Z,32
2017-06-25T02:47:38.445Z,36
2017-06-25T02:48:19.335Z,32
2017-06-25T02:49:00.235Z,36
2017-06-25T02:49:41.113Z,36
2017-06-25T02:50:21.994Z,36
2017-06-25T02:51:02.895Z,36
2017-06-25T02:51:43.783Z,36
2017-06-25T02:52:24.662Z,36
2017-06-25T02:53:05.557Z,40
2017-06-25T02:53:46.460Z,44
2017-06-25T02:54:27.349Z,48
2017-06-25T02:55:08.246Z,56
2017-06-25T02:55:49.137Z,60
2017-06-25T02:56:30.011Z,68
2017-06-25T02:57:10.902Z,76
2017-06-25T02:57:51.812Z,80
2017-06-25T02:58:32.685Z,84
2017-06-25T02:59:13.576Z,92
2017-06-25T02:59:54.489Z,104
2017-06-25T03:00:35.350Z,108
2017-06-25T03:01:16.220Z,112
2017-06-25T03:01:57.120Z,108
2017-06-25T03:02:38.015Z,116
2017-06-25T03:03:18.883Z,128
2017-06-25T03:03:59.759Z,140
2017-06-25T03:04:40.649Z,148
2017-06-25T03:05:21.550Z,144
2017-06-25T03:06:02.416Z,144
2017-06-25T03:06:43.304Z,156
2017-06-25T03:07:24.202Z,172
2017-06-25T03:08:05.088Z,188
2017-06-25T03:08:45.974Z,212
2017-06-25T03:09:26.860Z,232
2017-06-25T03:10:07.752Z,256
2017-06-25T03:10:48.637Z,272
2017-06-25T03:11:29.525Z,272
2017-06-25T03:12:10.439Z,280
2017-06-25T03:12:51.301Z,300
2017-06-25T03:13:32.178Z,292
2017-06-25T03:14:13.056Z,292
2017-06-25T03:14:53.939Z,284
2017-06-25T03:15:34.836Z,268
2017-06-25T03:16:15.709Z,264
2017-06-25T03:16:56.597Z,268
2017-06-25T03:17:37.502Z,280
2017-06-25T03:18:18.370Z,296
2017-06-25T03:18:59.244Z,304
2017-06-25T03:19:40.131Z,296
2017-06-25T03:20:21.034Z,276
2017-06-25T03:21:01.905Z,276
2017-06-25T03:21:42.777Z,296
2017-06-25T03:22:23.674Z,332
2017-06-25T03:23:04.595Z,348
2017-06-25T03:23:45.452Z,316
2017-06-25T03:24:26.334Z,272
2017-06-25T03:25:07.230Z,268
2017-06-25T03:25:48.132Z,300
2017-06-25T03:26:29.022Z,336
2017-06-25T03:27:09.920Z,332
2017-06-25T03:27:50.808Z,308
2017-06-25T03:28:31.684Z,292
2017-06-25T03:29:12.590Z,280
2017-06-25T03:29:53.479Z,264
2017-06-25T03:30:34.364Z,244
2017-06-25T03:31:15.268Z,240
2017-06-25T03:31:56.145Z,260
2017-06-25T03:32:37.020Z,332
2017-06-25T03:33:17.909Z,396
2017-06-25T03:33:58.810Z,396
2017-06-25T03:34:39.691Z,352
2017-06-25T03:35:20.574Z,324
2017-06-25T03:36:01.503Z,324
2017-06-25T03:36:42.394Z,308
2017-06-25T03:37:23.301Z,280
2017-06-25T03:38:04.172Z,288
2017-06-25T03:38:45.064Z,264
2017-06-25T03:39:25.980Z,248
2017-06-25T03:40:06.859Z,248
2017-06-25T03:40:47.737Z,252
2017-06-25T03:41:28.622Z,244
2017-06-25T03:42:09.525Z,224
2017-06-25T03:42:50.418Z,236
2017-06-25T03:43:31.325Z,240
2017-06-25T03:44:12.219Z,244
2017-06-25T03:44:53.082Z,236
2017-06-25T03:45:33.986Z,252
2017-06-25T03:46:14.859Z,264
2017-06-25T03:46:55.721Z,300
2017-06-25T03:47:36.605Z,352
2017-06-25T03:48:17.468Z,324
2017-06-25T03:48:58.327Z,252
2017-06-25T03:49:39.205Z,220
2017-06-25T03:50:20.138Z,212
2017-06-25T03:51:01.019Z,260
2017-06-25T03:51:41.914Z,320
2017-06-25T03:52:22.807Z,384
2017-06-25T03:53:03.653Z,372
2017-06-25T03:53:44.525Z,392
2017-06-25T03:54:25.405Z,424
2017-06-25T03:55:06.277Z,408
2017-06-25T03:55:47.157Z,364
2017-06-25T03:56:28.052Z,360
2017-06-25T03:57:08.921Z,368
2017-06-25T03:57:49.780Z,344
2017-06-25T03:58:30.643Z,356
2017-06-25T03:59:11.526Z,368
2017-06-25T03:59:52.408Z,376
2017-06-25T04:00:33.292Z,420
2017-06-25T04:01:14.160Z,428
2017-06-25T04:01:55.038Z,420
2017-06-25T04:02:35.916Z,408
2017-06-25T04:03:16.818Z,404
2017-06-25T04:03:57.696Z,416
2017-06-25T04:04:38.559Z,360
2017-06-25T04:05:19.418Z,316
2017-06-25T04:06:00.282Z,296
2017-06-25T04:06:41.152Z,304
2017-06-25T04:07:22.057Z,344
2017-06-25T04:08:02.954Z,432
2017-06-25T04:08:43.842Z,524
2017-06-25T04:09:24.759Z,568
2017-06-25T04:10:05.635Z,572
2017-06-25T04:10:46.511Z,600
2017-06-25T04:11:27.398Z,700
2017-06-25T04:12:08.276Z,732
2017-06-25T04:12:49.149Z,688
2017-06-25T04:13:30.037Z,624
2017-06-25T04:14:10.944Z,632
2017-06-25T04:14:51.815Z,640
2017-06-25T04:15:32.708Z,648
2017-06-25T04:16:13.596Z,680
2017-06-25T04:16:54.505Z,720
2017-06-25T04:17:35.393Z,616
2017-06-25T04:18:16.274Z,636
2017-06-25T04:18:57.156Z,640
2017-06-25T04:19:38.042Z,656
2017-06-25T04:20:18.976Z,696
2017-06-25T04:20:59.904Z,668
2017-06-25T04:21:40.812Z,660
2017-06-25T04:22:21.673Z,680
2017-06-25T04:23:02.579Z,680
2017-06-25T04:23:43.442Z,732
2017-06-25T04:24:24.294Z,940
2017-06-25T04:25:05.188Z,1100
2017-06-25T04:25:46.060Z,1192
2017-06-25T04:26:26.931Z,1152
2017-06-25T04:27:07.814Z,1032
2017-06-25T04:27:48.653Z,1068
2017-06-25T04:28:29.524Z,1156
2017-06-25T04:29:10.410Z,1376
2017-06-25T04:29:51.291Z,1572
2017-06-25T04:30:32.165Z,1556
2017-06-25T04:31:13.058Z,1552
2017-06-25T04:31:53.941Z,1644
2017-06-25T04:32:34.827Z,1624
2017-06-25T04:33:15.722Z,1596
2017-06-25T04:33:56.592Z,1540
2017-06-25T04:34:37.479Z,1504
2017-06-25T04:35:18.381Z,1476
2017-06-25T04:35:59.267Z,1368
2017-06-25T04:36:40.154Z,1256
2017-06-25T04:37:21.045Z,1164
2017-06-25T04:38:01.927Z,1200
2017-06-25T04:38:42.797Z,1272
2017-06-25T04:39:23.671Z,1372
2017-06-25T04:40:04.561Z,1564
2017-06-25T04:40:45.433Z,1664
2017-06-25T04:41:26.347Z,1664
2017-06-25T04:42:07.191Z,1992
2017-06-25T04:42:48.059Z,2340
2017-06-25T04:43:28.943Z,2388
2017-06-25T04:44:09.824Z,2332
2017-06-25T04:44:50.758Z,2300
2017-06-25T04:45:31.641Z,2140
2017-06-25T04:46:12.521Z,1844
2017-06-25T04:46:53.406Z,2032
2017-06-25T04:47:34.260Z,2256
2017-06-25T04:48:15.140Z,2496
2017-06-25T04:48:56.019Z,2848
2017-06-25T04:49:36.884Z,2512
2017-06-25T04:50:17.762Z,2452
2017-06-25T04:50:58.658Z,2620
2017-06-25T04:51:39.555Z,2648
2017-06-25T04:52:20.443Z,2408
2017-06-25T04:53:01.350Z,2380
2017-06-25T04:53:42.237Z,2688
2017-06-25T04:54:23.115Z,2984
2017-06-25T04:55:04.029Z,3076
2017-06-25T04:57:18.234Z,2976
2017-06-25T04:57:59.249Z,2796
2017-06-25T04:58:40.113Z,2748
2017-06-25T04:59:20.997Z,2720
2017-06-25T05:00:01.889Z,2576
2017-06-25T05:00:42.771Z,2424
2017-06-25T05:01:23.653Z,2536
2017-06-25T05:02:04.535Z,2884
2017-06-25T05:02:45.436Z,3064
2017-06-25T05:03:26.320Z,3016
2017-06-25T05:04:07.195Z,2704
2017-06-25T05:04:48.064Z,2748
2017-06-25T05:05:28.977Z,3052
2017-06-25T05:06:09.855Z,3168
2017-06-25T05:06:50.747Z,3100
2017-06-25T05:07:31.634Z,2880
2017-06-25T05:08:12.533Z,2588
2017-06-25T05:08:53.424Z,2244
2017-06-25T05:09:34.306Z,1972
2017-06-25T05:10:15.204Z,2132
2017-06-25T05:10:56.088Z,2184
2017-06-25T05:11:36.984Z,1904
2017-06-25T05:12:17.879Z,1680
2017-06-25T05:12:58.754Z,1676
2017-06-25T05:13:39.633Z,1732
2017-06-25T05:14:20.540Z,1728
2017-06-25T05:15:01.443Z,1632
2017-06-25T05:15:42.334Z,1792
2017-06-25T05:16:23.217Z,1900
2017-06-25T05:17:04.097Z,1924
2017-06-25T05:17:44.984Z,2052
2017-06-25T05:18:25.885Z,2304
2017-06-25T05:19:06.772Z,2624
2017-06-25T05:19:47.663Z,2684
2017-06-25T05:20:28.566Z,2660
2017-06-25T05:21:09.441Z,2748
2017-06-25T05:21:50.326Z,2860
2017-06-25T05:22:31.195Z,3020
2017-06-25T05:23:12.092Z,3248
2017-06-25T05:23:52.974Z,3364
2017-06-25T05:24:33.854Z,3200
2017-06-25T05:25:14.748Z,2896
2017-06-25T05:25:55.674Z,2728
2017-06-25T05:26:36.572Z,2692
2017-06-25T05:27:17.450Z,2872
2017-06-25T05:27:58.332Z,2876
2017-06-25T05:28:39.219Z,2688
2017-06-25T05:29:20.109Z,2936
2017-06-25T05:30:01.003Z,3052
2017-06-25T05:30:41.867Z,2896
2017-06-25T05:31:22.773Z,2344
2017-06-25T05:32:03.688Z,2036
2017-06-25T05:32:44.539Z,2100
2017-06-25T05:33:25.399Z,2352
2017-06-25T05:34:06.289Z,2560
2017-06-25T05:34:47.185Z,2608
2017-06-25T05:35:28.070Z,2712
2017-06-25T05:36:08.938Z,2932
2017-06-25T05:36:49.811Z,2968
2017-06-25T05:37:30.704Z,2912
2017-06-25T05:38:11.604Z,2956
2017-06-25T05:38:52.514Z,2812
2017-06-25T05:39:33.420Z,2756
2017-06-25T05:40:14.283Z,2716
2017-06-25T05:40:55.169Z,2860
2017-06-25T05:41:36.054Z,3172
2017-06-25T05:42:16.955Z,3424
2017-06-25T05:42:57.836Z,3744
2017-06-25T05:43:38.731Z,3992
2017-06-25T05:44:19.630Z,3916
2017-06-25T05:45:00.495Z,3600
2017-06-25T05:45:41.378Z,3380
2017-06-25T05:46:22.270Z,3200
2017-06-25T05:47:03.176Z,3208
2017-06-25T05:47:44.042Z,3440
2017-06-25T05:48:24.938Z,3600
2017-06-25T05:49:05.839Z,3452
2017-06-25T05:49:46.720Z,3192
2017-06-25T05:50:27.610Z,3076
2017-06-25T05:51:08.497Z,2952
2017-06-25T05:51:49.381Z,2876
2017-06-25T05:52:30.272Z,2952
2017-06-25T05:53:11.188Z,3156
2017-06-25T05:53:52.058Z,3304
2017-06-25T05:54:32.946Z,3480
2017-06-25T05:55:13.848Z,3804
2017-06-25T05:55:54.734Z,4236
2017-06-25T05:56:35.628Z,4508
2017-06-25T05:57:16.521Z,3952
2017-06-25T05:57:57.423Z,3360
2017-06-25T05:58:38.322Z,3160
2017-06-25T05:59:19.203Z,3196
2017-06-25T06:00:00.087Z,3416
2017-06-25T06:00:41.816Z,3524
2017-06-25T06:01:22.711Z,3416
2017-06-25T06:02:03.585Z,3416
2017-06-25T06:02:44.468Z,3128
2017-06-25T06:03:25.362Z,2840
2017-06-25T06:04:06.234Z,2792
2017-06-25T06:04:47.121Z,2900
2017-06-25T06:05:28.012Z,2892
2017-06-25T06:06:08.913Z,2740
2017-06-25T06:06:49.824Z,2572
2017-06-25T06:07:30.688Z,2464
2017-06-25T06:08:11.594Z,2448
2017-06-25T06:08:52.475Z,2432
2017-06-25T06:09:33.388Z,2604
2017-06-25T06:10:14.287Z,2596
2017-06-25T06:10:55.173Z,2376
2017-06-25T06:11:36.069Z,2084
2017-06-25T06:12:16.950Z,2020
2017-06-25T06:12:57.848Z,2072
2017-06-25T06:13:38.743Z,2420
2017-06-25T06:14:19.631Z,2780
2017-06-25T06:15:00.514Z,2988
2017-06-25T06:15:41.421Z,3016
2017-06-25T06:16:22.320Z,2992
2017-06-25T06:17:03.221Z,3416
2017-06-25T06:17:44.102Z,3948
2017-06-25T06:18:24.992Z,3936
2017-06-25T06:19:05.876Z,3904
2017-06-25T06:19:46.795Z,3956
2017-06-25T06:20:27.671Z,3876
2017-06-25T06:21:08.563Z,4152
2017-06-25T06:21:49.445Z,3552
2017-06-25T06:22:30.331Z,2840
2017-06-25T06:23:11.237Z,3004
2017-06-25T06:23:52.145Z,3328
2017-06-25T06:24:33.063Z,3296
2017-06-25T06:25:13.965Z,3340
2017-06-25T06:25:54.875Z,3808
2017-06-25T06:26:35.780Z,4380
2017-06-25T06:27:16.669Z,4828
2017-06-25T06:27:57.567Z,4728
2017-06-25T06:28:38.462Z,4168
2017-06-25T06:29:19.326Z,3892
2017-06-25T06:30:00.223Z,3768
2017-06-25T06:30:41.119Z,3832
2017-06-25T06:31:22.018Z,3776
2017-06-25T06:32:03.627Z,3388
2017-06-25T06:32:44.542Z,3364
2017-06-25T06:33:25.472Z,3656
2017-06-25T06:34:06.342Z,3876
2017-06-25T06:34:47.214Z,3952
2017-06-25T06:35:28.090Z,4276
2017-06-25T06:36:08.995Z,4548
2017-06-25T06:36:49.879Z,4620
2017-06-25T06:37:30.749Z,4584
2017-06-25T06:38:11.642Z,4412
2017-06-25T06:38:52.553Z,4224
2017-06-25T06:39:33.439Z,4012
2017-06-25T06:40:14.333Z,3888
2017-06-25T06:40:55.227Z,3444
2017-06-25T06:41:36.106Z,2720
2017-06-25T06:42:17.008Z,2632
2017-06-25T06:42:57.908Z,2468
2017-06-25T06:43:38.787Z,2296
2017-06-25T06:44:19.686Z,2384
2017-06-25T06:45:01.109Z,2900
2017-06-25T06:45:42.001Z,3412
2017-06-25T06:46:22.890Z,4072
2017-06-25T06:47:03.768Z,4072
2017-06-25T06:47:44.673Z,3816
2017-06-25T06:48:25.561Z,3656
2017-06-25T06:49:06.449Z,3396
2017-06-25T06:49:47.320Z,3108
2017-06-25T06:50:28.212Z,3016
2017-06-25T06:51:09.127Z,3116
2017-06-25T06:51:50.001Z,3272
2017-06-25T06:52:30.907Z,3480
2017-06-25T06:53:11.793Z,3604
2017-06-25T06:53:52.688Z,3452
2017-06-25T06:54:33.587Z,3240
2017-06-25T06:55:14.479Z,3184
2017-06-25T06:55:55.373Z,3288
2017-06-25T06:56:36.267Z,3352
2017-06-25T06:57:17.159Z,3396
2017-06-25T06:57:58.044Z,3448
2017-06-25T06:58:38.938Z,3612
2017-06-25T06:59:19.832Z,4208
2017-06-25T07:00:00.711Z,4772
2017-06-25T07:00:41.612Z,5100
2017-06-25T07:01:22.528Z,5180
2017-06-25T07:02:03.475Z,5228
2017-06-25T07:02:44.383Z,5504
2017-06-25T07:03:25.275Z,5904
2017-06-25T07:04:06.198Z,6176
2017-06-25T07:04:47.076Z,6364
2017-06-25T07:05:28.008Z,6556
2017-06-25T07:06:08.908Z,6708
2017-06-25T07:06:49.775Z,6632
2017-06-25T07:07:30.638Z,6444
2017-06-25T07:08:11.498Z,6272
2017-06-25T07:08:52.360Z,6096
2017-06-25T07:09:33.229Z,5952
2017-06-25T07:10:14.113Z,5836
2017-06-25T07:10:54.992Z,5568
2017-06-25T07:11:35.873Z,5616
2017-06-25T07:12:16.759Z,5808
2017-06-25T07:12:57.649Z,5348
2017-06-25T07:13:38.528Z,4780
2017-06-25T07:14:19.412Z,4240
2017-06-25T07:15:00.284Z,4108
2017-06-25T07:15:41.156Z,4040
2017-06-25T07:16:22.064Z,3700
2017-06-25T07:17:02.930Z,3484
2017-06-25T07:17:43.783Z,3440
2017-06-25T07:18:24.666Z,3944
2017-06-25T07:19:05.593Z,4644
2017-06-25T07:19:46.479Z,5420
2017-06-25T07:20:27.394Z,5660
2017-06-25T07:21:08.293Z,5196
2017-06-25T07:21:49.171Z,5552
2017-06-25T07:22:30.070Z,5680
2017-06-25T07:23:10.977Z,5268
2017-06-25T07:23:51.831Z,4592
2017-06-25T07:24:32.686Z,4692
2017-06-25T07:25:13.564Z,4772
2017-06-25T07:25:54.433Z,4904
2017-06-25T07:26:35.310Z,5212
2017-06-25T07:27:16.188Z,4948
2017-06-25T07:27:57.076Z,4512
2017-06-25T07:28:37.955Z,3960
2017-06-25T07:29:18.823Z,3784
2017-06-25T07:29:59.699Z,4360
2017-06-25T07:30:40.560Z,5184
2017-06-25T07:31:21.464Z,5956
2017-06-25T07:32:02.338Z,6176
2017-06-25T07:32:43.207Z,5760
2017-06-25T07:33:24.065Z,5240
2017-06-25T07:34:04.972Z,5356
2017-06-25T07:34:45.872Z,5676
2017-06-25T07:35:26.739Z,5544
2017-06-25T07:36:07.650Z,5280
2017-06-25T07:36:48.523Z,5204
2017-06-25T07:37:29.396Z,5772
2017-06-25T07:38:10.269Z,7252
2017-06-25T07:38:51.160Z,8212
2017-06-25T07:39:32.054Z,8924
2017-06-25T07:40:12.945Z,9212
2017-06-25T07:40:53.838Z,9240
2017-06-25T07:41:34.732Z,9224
2017-06-25T07:42:15.617Z,9368
2017-06-25T07:42:56.507Z,9812
2017-06-25T07:43:37.413Z,10268
2017-06-25T07:44:18.276Z,10728
2017-06-25T07:44:59.144Z,11284
2017-06-25T07:45:40.020Z,12032
2017-06-25T07:46:20.924Z,12860
2017-06-25T07:47:01.805Z,13728
2017-06-25T07:47:42.683Z,14560
2017-06-25T07:48:23.557Z,18784
2017-06-25T07:49:04.432Z,18720
2017-06-25T07:49:45.350Z,22528
2017-06-25T07:50:26.246Z,18944
2017-06-25T07:51:07.134Z,23552
2017-06-25T07:51:48.019Z,23328
2017-06-25T07:52:28.904Z,20672
2017-06-25T07:53:09.795Z,19104
2017-06-25T07:53:50.689Z,17600
2017-06-25T07:54:31.560Z,18240
2017-06-25T07:55:12.428Z,16288
2017-06-25T07:55:53.317Z,14496
2017-06-25T07:56:34.199Z,12872
2017-06-25T07:57:15.081Z,11504
2017-06-25T07:57:55.956Z,11384
2017-06-25T07:58:36.819Z,12568
2017-06-25T07:59:17.716Z,13828
2017-06-25T07:59:58.595Z,15308
2017-06-25T08:00:39.489Z,13728
2017-06-25T08:01:20.376Z,12960
2017-06-25T08:02:01.291Z,12792
2017-06-25T08:02:42.176Z,13084
2017-06-25T08:03:23.054Z,12948
2017-06-25T08:04:03.933Z,12592
2017-06-25T08:04:44.824Z,11712
2017-06-25T08:05:25.733Z,9480
2017-06-25T08:06:06.621Z,7984
2017-06-25T08:06:47.507Z,6844
2017-06-25T08:07:28.379Z,6512
2017-06-25T08:08:09.242Z,6936
2017-06-25T08:08:50.127Z,7612
2017-06-25T08:09:31.010Z,8452
2017-06-25T08:10:11.950Z,9376
2017-06-25T08:10:52.826Z,10184
2017-06-25T08:11:33.711Z,11468
2017-06-25T08:12:14.595Z,13108
2017-06-25T08:12:55.510Z,14552
2017-06-25T08:15:09.660Z,12944
2017-06-25T08:15:50.551Z,12288
2017-06-25T08:16:31.438Z,13028
2017-06-25T08:17:12.341Z,12980
2017-06-25T08:17:53.252Z,10940
2017-06-25T08:18:34.172Z,11180
2017-06-25T08:19:15.104Z,10024
2017-06-25T08:20:53.627Z,11796
2017-06-25T08:21:34.498Z,12788
2017-06-25T08:22:15.379Z,12596
2017-06-25T08:22:56.271Z,9308
2017-06-25T08:23:37.173Z,9232
2017-06-25T08:24:18.060Z,8064
2017-06-25T08:24:58.965Z,6892
2017-06-25T08:25:39.851Z,6244
2017-06-25T08:26:20.708Z,6476
2017-06-25T08:27:01.601Z,6580
2017-06-25T08:27:42.490Z,6636
2017-06-25T08:28:23.391Z,5724
2017-06-25T08:29:04.273Z,5264
2017-06-25T08:29:45.171Z,5228
2017-06-25T08:30:26.045Z,5060
2017-06-25T08:31:06.932Z,4920
2017-06-25T08:31:47.822Z,5052
2017-06-25T08:32:28.730Z,6600
2017-06-25T08:33:09.621Z,7224
2017-06-25T08:33:50.513Z,6984
2017-06-25T08:34:31.407Z,8068
2017-06-25T08:35:12.299Z,9256
2017-06-25T08:35:53.184Z,10016
2017-06-25T08:36:34.086Z,9368
2017-06-25T08:37:14.968Z,6180
2017-06-25T08:37:55.855Z,5508
2017-06-25T08:38:36.752Z,5524
2017-06-25T08:39:17.641Z,7344
2017-06-25T08:39:58.538Z,8344
2017-06-25T08:40:39.439Z,6376
2017-06-25T08:41:20.305Z,4752
2017-06-25T08:42:01.191Z,4972
2017-06-25T08:42:42.086Z,5528
2017-06-25T08:43:23.006Z,7412
2017-06-25T08:44:03.896Z,6928
2017-06-25T08:44:44.793Z,5640
2017-06-25T08:45:25.676Z,5224
2017-06-25T08:46:06.565Z,6640
2017-06-25T08:46:47.460Z,6948
2017-06-25T08:47:28.323Z,6736
2017-06-25T08:48:09.225Z,6940
2017-06-25T08:48:50.130Z,7176
2017-06-25T08:49:31.023Z,7660
2017-06-25T08:50:11.926Z,8456
2017-06-25T08:50:52.804Z,8920
2017-06-25T08:51:33.704Z,7812
2017-06-25T08:52:14.600Z,7512
2017-06-25T08:52:55.495Z,7732
2017-06-25T08:53:36.413Z,8736
2017-06-25T08:54:17.300Z,8980
2017-06-25T08:54:58.189Z,9424
2017-06-25T08:55:39.083Z,9280
2017-06-25T08:56:19.975Z,8288
2017-06-25T08:57:00.877Z,6516
2017-06-25T08:57:41.735Z,5800
2017-06-25T08:58:22.622Z,5804
2017-06-25T08:59:03.512Z,7660
2017-06-25T08:59:44.384Z,10552
2017-06-25T09:00:25.272Z,11384
2017-06-25T09:01:06.163Z,12676
2017-06-25T09:01:47.034Z,14248
2017-06-25T09:02:27.935Z,12044
2017-06-25T09:03:08.818Z,9384
2017-06-25T09:03:49.689Z,6968
2017-06-25T09:04:30.574Z,8804
2017-06-25T09:05:11.449Z,10508
2017-06-25T09:05:52.353Z,14344
2017-06-25T09:06:33.242Z,15344
2017-06-25T09:07:14.127Z,9392
2017-06-25T09:07:55.008Z,10408
2017-06-25T09:08:35.892Z,14688
2017-06-25T09:09:16.781Z,12844
2017-06-25T09:09:57.643Z,10572
2017-06-25T09:10:38.523Z,12744
2017-06-25T09:11:19.398Z,13924
2017-06-25T09:12:00.292Z,15808
2017-06-25T09:12:41.182Z,18208
2017-06-25T09:13:22.070Z,23232
2017-06-25T09:14:02.958Z,22432
2017-06-25T09:14:43.850Z,18240
2017-06-25T09:15:24.730Z,15356
2017-06-25T09:16:05.614Z,15568
2017-06-25T09:18:04.442Z,13676
2017-06-25T09:18:45.377Z,13932
2017-06-25T09:19:26.269Z,14992
2017-06-25T09:20:07.146Z,18048
2017-06-25T09:20:48.028Z,15780
2017-06-25T09:21:28.920Z,16608
2017-06-25T09:22:09.810Z,16288
2017-06-25T09:22:50.693Z,16480
2017-06-25T09:23:31.554Z,16960
2017-06-25T09:24:12.457Z,16608
2017-06-25T09:24:53.349Z,18912
2017-06-25T09:25:34.214Z,14512
2017-06-25T09:26:15.113Z,14404
2017-06-25T09:26:55.994Z,14160
2017-06-25T09:27:36.871Z,13064